sensor_id;sensor_type;location;lat;lon;timestamp;temperature;humidity
2441;DHT22;1231;53.988;9.470;2022-12-10T00:01:52;2.70;84.70
2441;DHT22;1231;53.988;9.470;2022-12-10T00:04:23;2.70;84.50
2441;DHT22;1231;53.988;9.470;2022-12-10T00:06:53;2.70;84.60
2441;DHT22;1231;53.988;9.470;2022-12-10T00:09:24;2.70;84.50
2441;DHT22;1231;53.988;9.470;2022-12-10T00:11:55;2.70;84.50
2441;DHT22;1231;53.988;9.470;2022-12-10T00:14:25;2.70;84.50
2441;DHT22;1231;53.988;9.470;2022-12-10T00:16:56;2.70;84.50
2441;DHT22;1231;53.988;9.470;2022-12-10T00:19:26;2.70;84.50
2441;DHT22;1231;53.988;9.470;2022-12-10T00:21:57;2.70;84.40
2441;DHT22;1231;53.988;9.470;2022-12-10T00:24:27;2.70;84.40
2441;DHT22;1231;53.988;9.470;2022-12-10T00:26:58;2.70;84.40
2441;DHT22;1231;53.988;9.470;2022-12-10T00:29:28;2.70;84.40
2441;DHT22;1231;53.988;9.470;2022-12-10T00:31:59;2.70;84.40
2441;DHT22;1231;53.988;9.470;2022-12-10T00:34:29;2.70;84.40
2441;DHT22;1231;53.988;9.470;2022-12-10T00:37:00;2.60;84.30
2441;DHT22;1231;53.988;9.470;2022-12-10T00:39:31;2.60;84.20
2441;DHT22;1231;53.988;9.470;2022-12-10T00:42:02;2.60;84.10
2441;DHT22;1231;53.988;9.470;2022-12-10T00:44:32;2.60;84.10
2441;DHT22;1231;53.988;9.470;2022-12-10T00:47:03;2.60;83.90
2441;DHT22;1231;53.988;9.470;2022-12-10T00:49:34;2.60;84.00
2441;DHT22;1231;53.988;9.470;2022-12-10T00:52:04;2.60;84.20
2441;DHT22;1231;53.988;9.470;2022-12-10T00:54:35;2.60;84.20
2441;DHT22;1231;53.988;9.470;2022-12-10T00:57:05;2.60;84.10
2441;DHT22;1231;53.988;9.470;2022-12-10T00:59:36;2.60;84.10
2441;DHT22;1231;53.988;9.470;2022-12-10T01:02:07;2.60;84.10
2441;DHT22;1231;53.988;9.470;2022-12-10T01:04:37;2.50;84.10
2441;DHT22;1231;53.988;9.470;2022-12-10T01:07:08;2.50;84.10
2441;DHT22;1231;53.988;9.470;2022-12-10T01:09:40;2.50;83.90
2441;DHT22;1231;53.988;9.470;2022-12-10T01:12:10;2.50;83.80
2441;DHT22;1231;53.988;9.470;2022-12-10T01:14:41;2.50;83.80
2441;DHT22;1231;53.988;9.470;2022-12-10T01:17:11;2.50;83.90
2441;DHT22;1231;53.988;9.470;2022-12-10T01:19:42;2.50;84.10
2441;DHT22;1231;53.988;9.470;2022-12-10T01:22:13;2.50;83.90
2441;DHT22;1231;53.988;9.470;2022-12-10T01:24:43;2.50;83.90
2441;DHT22;1231;53.988;9.470;2022-12-10T01:27:14;2.50;84.10
2441;DHT22;1231;53.988;9.470;2022-12-10T01:29:44;2.50;84.20
2441;DHT22;1231;53.988;9.470;2022-12-10T01:32:15;2.50;84.20
2441;DHT22;1231;53.988;9.470;2022-12-10T01:34:45;2.50;84.30
2441;DHT22;1231;53.988;9.470;2022-12-10T01:37:16;2.50;84.30
2441;DHT22;1231;53.988;9.470;2022-12-10T01:39:46;2.60;84.20
2441;DHT22;1231;53.988;9.470;2022-12-10T01:42:17;2.60;84.30
2441;DHT22;1231;53.988;9.470;2022-12-10T01:47:18;2.60;84.10
2441;DHT22;1231;53.988;9.470;2022-12-10T01:49:49;2.60;84.20
2441;DHT22;1231;53.988;9.470;2022-12-10T01:52:19;2.60;84.30
2441;DHT22;1231;53.988;9.470;2022-12-10T01:54:50;2.60;84.20
2441;DHT22;1231;53.988;9.470;2022-12-10T01:57:26;2.60;84.20
2441;DHT22;1231;53.988;9.470;2022-12-10T02:00:00;2.60;84.00
2441;DHT22;1231;53.988;9.470;2022-12-10T02:05:05;2.60;84.00
2441;DHT22;1231;53.988;9.470;2022-12-10T02:08:01;2.60;83.90
2441;DHT22;1231;53.988;9.470;2022-12-10T02:10:54;2.60;84.00
2441;DHT22;1231;53.988;9.470;2022-12-10T02:13:41;2.60;83.90
2441;DHT22;1231;53.988;9.470;2022-12-10T02:16:16;2.60;83.90
2441;DHT22;1231;53.988;9.470;2022-12-10T02:18:53;2.60;83.90
2441;DHT22;1231;53.988;9.470;2022-12-10T02:21:30;2.60;84.10
2441;DHT22;1231;53.988;9.470;2022-12-10T02:24:05;2.60;84.00
2441;DHT22;1231;53.988;9.470;2022-12-10T02:29:43;2.60;84.10
2441;DHT22;1231;53.988;9.470;2022-12-10T02:32:25;2.60;84.00
2441;DHT22;1231;53.988;9.470;2022-12-10T02:35:00;2.60;83.90
2441;DHT22;1231;53.988;9.470;2022-12-10T02:37:45;2.60;83.90
2441;DHT22;1231;53.988;9.470;2022-12-10T02:40:22;2.60;83.90
2441;DHT22;1231;53.988;9.470;2022-12-10T02:42:54;2.60;83.80
2441;DHT22;1231;53.988;9.470;2022-12-10T02:45:27;2.60;83.80
2441;DHT22;1231;53.988;9.470;2022-12-10T02:47:59;2.60;83.80
2441;DHT22;1231;53.988;9.470;2022-12-10T02:50:31;2.60;83.80
2441;DHT22;1231;53.988;9.470;2022-12-10T02:53:02;2.60;83.80
2441;DHT22;1231;53.988;9.470;2022-12-10T03:06:54;2.50;83.50
2441;DHT22;1231;53.988;9.470;2022-12-10T03:09:35;2.50;83.50
2441;DHT22;1231;53.988;9.470;2022-12-10T03:12:18;2.50;83.50
2441;DHT22;1231;53.988;9.470;2022-12-10T03:15:00;2.50;83.50
2441;DHT22;1231;53.988;9.470;2022-12-10T03:17:31;2.50;83.40
2441;DHT22;1231;53.988;9.470;2022-12-10T03:20:03;2.50;83.40
2441;DHT22;1231;53.988;9.470;2022-12-10T03:22:40;2.50;83.40
2441;DHT22;1231;53.988;9.470;2022-12-10T03:25:19;2.50;83.40
2441;DHT22;1231;53.988;9.470;2022-12-10T03:27:54;2.50;83.30
2441;DHT22;1231;53.988;9.470;2022-12-10T03:30:25;2.40;83.00
2441;DHT22;1231;53.988;9.470;2022-12-10T03:32:55;2.40;83.00
2441;DHT22;1231;53.988;9.470;2022-12-10T03:35:26;2.40;82.90
2441;DHT22;1231;53.988;9.470;2022-12-10T03:37:57;2.40;82.90
2441;DHT22;1231;53.988;9.470;2022-12-10T03:40:28;2.40;83.10
2441;DHT22;1231;53.988;9.470;2022-12-10T03:42:59;2.40;83.10
2441;DHT22;1231;53.988;9.470;2022-12-10T03:45:29;2.40;83.20
2441;DHT22;1231;53.988;9.470;2022-12-10T03:48:00;2.30;83.10
2441;DHT22;1231;53.988;9.470;2022-12-10T03:50:30;2.30;82.80
2441;DHT22;1231;53.988;9.470;2022-12-10T03:53:01;2.30;82.80
2441;DHT22;1231;53.988;9.470;2022-12-10T03:55:31;2.30;82.80
2441;DHT22;1231;53.988;9.470;2022-12-10T03:58:03;2.30;82.80
2441;DHT22;1231;53.988;9.470;2022-12-10T04:00:33;2.20;82.90
2441;DHT22;1231;53.988;9.470;2022-12-10T04:03:04;2.20;83.10
2441;DHT22;1231;53.988;9.470;2022-12-10T04:05:36;2.20;82.90
2441;DHT22;1231;53.988;9.470;2022-12-10T04:08:07;2.20;82.60
2441;DHT22;1231;53.988;9.470;2022-12-10T04:10:38;2.20;82.30
2441;DHT22;1231;53.988;9.470;2022-12-10T04:13:08;2.10;81.60
2441;DHT22;1231;53.988;9.470;2022-12-10T04:15:57;2.10;81.50
2441;DHT22;1231;53.988;9.470;2022-12-10T04:18:47;2.10;81.80
2441;DHT22;1231;53.988;9.470;2022-12-10T04:21:17;2.10;82.00
2441;DHT22;1231;53.988;9.470;2022-12-10T04:24:09;2.10;81.90
2441;DHT22;1231;53.988;9.470;2022-12-10T04:27:01;2.10;81.70
2441;DHT22;1231;53.988;9.470;2022-12-10T04:29:32;2.10;81.70
2441;DHT22;1231;53.988;9.470;2022-12-10T04:32:03;2.10;81.70
2441;DHT22;1231;53.988;9.470;2022-12-10T04:34:34;2.10;81.70
2441;DHT22;1231;53.988;9.470;2022-12-10T04:37:05;2.10;81.80
2441;DHT22;1231;53.988;9.470;2022-12-10T04:39:35;2.10;81.50
2441;DHT22;1231;53.988;9.470;2022-12-10T04:42:07;2.10;81.30
2441;DHT22;1231;53.988;9.470;2022-12-10T04:44:38;2.10;81.30
2441;DHT22;1231;53.988;9.470;2022-12-10T04:47:09;2.00;81.30
2441;DHT22;1231;53.988;9.470;2022-12-10T04:49:40;2.00;81.40
2441;DHT22;1231;53.988;9.470;2022-12-10T04:52:12;2.10;81.40
2441;DHT22;1231;53.988;9.470;2022-12-10T04:54:44;2.10;81.30
2441;DHT22;1231;53.988;9.470;2022-12-10T04:57:14;2.10;81.30
2441;DHT22;1231;53.988;9.470;2022-12-10T04:59:45;2.00;81.20
2441;DHT22;1231;53.988;9.470;2022-12-10T05:02:15;2.10;81.20
2441;DHT22;1231;53.988;9.470;2022-12-10T05:04:48;2.10;81.30
2441;DHT22;1231;53.988;9.470;2022-12-10T05:07:19;2.00;81.30
2441;DHT22;1231;53.988;9.470;2022-12-10T05:09:49;2.00;81.30
2441;DHT22;1231;53.988;9.470;2022-12-10T05:12:20;2.10;81.30
2441;DHT22;1231;53.988;9.470;2022-12-10T05:14:50;2.10;81.30
2441;DHT22;1231;53.988;9.470;2022-12-10T05:17:21;2.10;81.30
2441;DHT22;1231;53.988;9.470;2022-12-10T05:19:51;2.00;81.30
2441;DHT22;1231;53.988;9.470;2022-12-10T05:22:22;2.00;81.30
2441;DHT22;1231;53.988;9.470;2022-12-10T05:25:31;2.00;81.40
2441;DHT22;1231;53.988;9.470;2022-12-10T05:28:22;2.00;81.30
2441;DHT22;1231;53.988;9.470;2022-12-10T05:30:53;2.00;81.30
2441;DHT22;1231;53.988;9.470;2022-12-10T05:33:24;2.00;81.10
2441;DHT22;1231;53.988;9.470;2022-12-10T05:35:57;1.90;81.00
2441;DHT22;1231;53.988;9.470;2022-12-10T05:38:30;1.90;81.00
2441;DHT22;1231;53.988;9.470;2022-12-10T05:41:06;1.90;80.90
2441;DHT22;1231;53.988;9.470;2022-12-10T05:43:37;1.90;81.00
2441;DHT22;1231;53.988;9.470;2022-12-10T05:46:11;1.90;80.80
2441;DHT22;1231;53.988;9.470;2022-12-10T05:48:42;1.80;80.80
2441;DHT22;1231;53.988;9.470;2022-12-10T05:51:15;1.80;80.90
2441;DHT22;1231;53.988;9.470;2022-12-10T05:53:47;1.80;81.10
2441;DHT22;1231;53.988;9.470;2022-12-10T05:56:21;1.80;81.10
2441;DHT22;1231;53.988;9.470;2022-12-10T05:58:54;1.80;81.00
2441;DHT22;1231;53.988;9.470;2022-12-10T06:01:27;1.80;81.00
2441;DHT22;1231;53.988;9.470;2022-12-10T06:03:59;1.80;81.10
2441;DHT22;1231;53.988;9.470;2022-12-10T06:06:33;1.80;81.30
2441;DHT22;1231;53.988;9.470;2022-12-10T06:09:05;1.80;81.10
2441;DHT22;1231;53.988;9.470;2022-12-10T06:11:36;1.80;81.10
2441;DHT22;1231;53.988;9.470;2022-12-10T06:14:09;1.80;81.00
2441;DHT22;1231;53.988;9.470;2022-12-10T06:16:40;1.80;80.90
2441;DHT22;1231;53.988;9.470;2022-12-10T06:19:11;1.80;80.70
2441;DHT22;1231;53.988;9.470;2022-12-10T06:21:42;1.80;80.60
2441;DHT22;1231;53.988;9.470;2022-12-10T06:24:12;1.80;80.60
2441;DHT22;1231;53.988;9.470;2022-12-10T06:26:43;1.80;80.60
2441;DHT22;1231;53.988;9.470;2022-12-10T06:29:14;1.80;80.70
2441;DHT22;1231;53.988;9.470;2022-12-10T06:31:44;1.90;80.70
2441;DHT22;1231;53.988;9.470;2022-12-10T06:34:15;1.90;80.80
2441;DHT22;1231;53.988;9.470;2022-12-10T06:36:45;1.90;80.90
2441;DHT22;1231;53.988;9.470;2022-12-10T06:39:16;1.90;81.00
2441;DHT22;1231;53.988;9.470;2022-12-10T06:41:46;1.90;81.00
2441;DHT22;1231;53.988;9.470;2022-12-10T06:44:17;2.00;81.00
2441;DHT22;1231;53.988;9.470;2022-12-10T06:46:47;2.00;80.90
2441;DHT22;1231;53.988;9.470;2022-12-10T06:49:18;2.00;80.80
2441;DHT22;1231;53.988;9.470;2022-12-10T06:51:49;2.00;80.70
2441;DHT22;1231;53.988;9.470;2022-12-10T06:54:19;2.00;80.70
2441;DHT22;1231;53.988;9.470;2022-12-10T06:56:50;2.10;80.70
2441;DHT22;1231;53.988;9.470;2022-12-10T06:59:20;2.10;80.80
2441;DHT22;1231;53.988;9.470;2022-12-10T07:01:51;2.10;80.70
2441;DHT22;1231;53.988;9.470;2022-12-10T07:04:21;2.10;80.60
2441;DHT22;1231;53.988;9.470;2022-12-10T07:06:52;2.10;80.40
2441;DHT22;1231;53.988;9.470;2022-12-10T07:09:23;2.10;80.40
2441;DHT22;1231;53.988;9.470;2022-12-10T07:11:54;2.10;80.40
2441;DHT22;1231;53.988;9.470;2022-12-10T07:14:24;2.10;80.30
2441;DHT22;1231;53.988;9.470;2022-12-10T07:16:55;2.10;80.30
2441;DHT22;1231;53.988;9.470;2022-12-10T07:19:26;2.20;80.40
2441;DHT22;1231;53.988;9.470;2022-12-10T07:21:56;2.20;80.30
2441;DHT22;1231;53.988;9.470;2022-12-10T07:24:27;2.20;80.30
2441;DHT22;1231;53.988;9.470;2022-12-10T07:26:57;2.20;80.20
2441;DHT22;1231;53.988;9.470;2022-12-10T07:29:28;2.20;80.20
2441;DHT22;1231;53.988;9.470;2022-12-10T07:31:59;2.20;80.20
2441;DHT22;1231;53.988;9.470;2022-12-10T07:34:29;2.20;80.20
2441;DHT22;1231;53.988;9.470;2022-12-10T07:37:00;2.20;80.10
2441;DHT22;1231;53.988;9.470;2022-12-10T07:39:30;2.20;80.10
2441;DHT22;1231;53.988;9.470;2022-12-10T07:42:01;2.20;80.30
2441;DHT22;1231;53.988;9.470;2022-12-10T07:44:32;2.20;80.30
2441;DHT22;1231;53.988;9.470;2022-12-10T07:47:02;2.20;80.20
2441;DHT22;1231;53.988;9.470;2022-12-10T07:49:33;2.20;79.90
2441;DHT22;1231;53.988;9.470;2022-12-10T07:52:04;2.20;79.80
2441;DHT22;1231;53.988;9.470;2022-12-10T07:54:34;2.20;79.90
2441;DHT22;1231;53.988;9.470;2022-12-10T07:57:05;2.20;79.80
2441;DHT22;1231;53.988;9.470;2022-12-10T07:59:36;2.20;79.70
2441;DHT22;1231;53.988;9.470;2022-12-10T08:02:08;2.30;79.70
2441;DHT22;1231;53.988;9.470;2022-12-10T08:04:39;2.30;79.80
2441;DHT22;1231;53.988;9.470;2022-12-10T08:07:09;2.30;79.80
2441;DHT22;1231;53.988;9.470;2022-12-10T08:09:40;2.30;79.70
2441;DHT22;1231;53.988;9.470;2022-12-10T08:12:10;2.30;79.70
2441;DHT22;1231;53.988;9.470;2022-12-10T08:14:41;2.30;79.60
2441;DHT22;1231;53.988;9.470;2022-12-10T08:17:12;2.30;79.50
2441;DHT22;1231;53.988;9.470;2022-12-10T08:19:42;2.30;79.50
2441;DHT22;1231;53.988;9.470;2022-12-10T08:22:13;2.30;79.60
2441;DHT22;1231;53.988;9.470;2022-12-10T08:24:43;2.40;79.60
2441;DHT22;1231;53.988;9.470;2022-12-10T08:27:14;2.40;79.60
2441;DHT22;1231;53.988;9.470;2022-12-10T08:29:44;2.40;79.60
2441;DHT22;1231;53.988;9.470;2022-12-10T08:32:15;2.40;79.70
2441;DHT22;1231;53.988;9.470;2022-12-10T08:34:45;2.50;79.70
2441;DHT22;1231;53.988;9.470;2022-12-10T08:37:16;2.50;79.60
2441;DHT22;1231;53.988;9.470;2022-12-10T08:39:47;2.50;79.70
2441;DHT22;1231;53.988;9.470;2022-12-10T08:42:18;2.50;79.50
2441;DHT22;1231;53.988;9.470;2022-12-10T08:44:48;2.50;79.20
2441;DHT22;1231;53.988;9.470;2022-12-10T08:47:19;2.50;79.10
2441;DHT22;1231;53.988;9.470;2022-12-10T08:49:49;2.50;79.00
2441;DHT22;1231;53.988;9.470;2022-12-10T08:52:20;2.50;79.00
2441;DHT22;1231;53.988;9.470;2022-12-10T08:54:50;2.50;78.80
2441;DHT22;1231;53.988;9.470;2022-12-10T08:57:21;2.60;79.00
2441;DHT22;1231;53.988;9.470;2022-12-10T08:59:51;2.60;78.90
2441;DHT22;1231;53.988;9.470;2022-12-10T09:02:22;2.60;79.00
2441;DHT22;1231;53.988;9.470;2022-12-10T09:04:53;2.60;79.00
2441;DHT22;1231;53.988;9.470;2022-12-10T09:07:23;2.60;79.00
2441;DHT22;1231;53.988;9.470;2022-12-10T09:09:54;2.60;79.10
2441;DHT22;1231;53.988;9.470;2022-12-10T09:12:25;2.70;79.10
2441;DHT22;1231;53.988;9.470;2022-12-10T09:14:56;2.70;79.10
2441;DHT22;1231;53.988;9.470;2022-12-10T09:17:26;2.70;79.00
2441;DHT22;1231;53.988;9.470;2022-12-10T09:19:57;2.70;79.00
2441;DHT22;1231;53.988;9.470;2022-12-10T09:22:28;2.70;79.10
2441;DHT22;1231;53.988;9.470;2022-12-10T09:24:59;2.70;79.00
2441;DHT22;1231;53.988;9.470;2022-12-10T09:27:30;2.80;79.00
2441;DHT22;1231;53.988;9.470;2022-12-10T09:30:01;2.80;79.00
2441;DHT22;1231;53.988;9.470;2022-12-10T09:32:31;2.80;79.00
2441;DHT22;1231;53.988;9.470;2022-12-10T09:35:02;2.80;79.10
2441;DHT22;1231;53.988;9.470;2022-12-10T09:37:34;2.90;79.10
2441;DHT22;1231;53.988;9.470;2022-12-10T09:40:05;2.90;79.10
2441;DHT22;1231;53.988;9.470;2022-12-10T09:43:16;2.90;79.00
2441;DHT22;1231;53.988;9.470;2022-12-10T09:48:36;2.90;78.60
2441;DHT22;1231;53.988;9.470;2022-12-10T09:51:17;2.90;78.30
2441;DHT22;1231;53.988;9.470;2022-12-10T09:53:52;2.90;77.90
2441;DHT22;1231;53.988;9.470;2022-12-10T09:56:32;2.90;77.90
2441;DHT22;1231;53.988;9.470;2022-12-10T09:59:12;2.90;78.00
2441;DHT22;1231;53.988;9.470;2022-12-10T10:01:47;3.00;78.30
2441;DHT22;1231;53.988;9.470;2022-12-10T10:04:19;3.00;78.20
2441;DHT22;1231;53.988;9.470;2022-12-10T10:06:50;3.00;77.90
2441;DHT22;1231;53.988;9.470;2022-12-10T10:09:21;3.00;77.60
2441;DHT22;1231;53.988;9.470;2022-12-10T10:11:51;3.00;77.60
2441;DHT22;1231;53.988;9.470;2022-12-10T10:14:31;3.10;77.70
2441;DHT22;1231;53.988;9.470;2022-12-10T10:17:04;3.10;77.70
2441;DHT22;1231;53.988;9.470;2022-12-10T10:19:39;3.10;77.60
2441;DHT22;1231;53.988;9.470;2022-12-10T10:22:11;3.20;77.50
2441;DHT22;1231;53.988;9.470;2022-12-10T10:24:44;3.20;77.50
2441;DHT22;1231;53.988;9.470;2022-12-10T10:27:17;3.20;77.40
2441;DHT22;1231;53.988;9.470;2022-12-10T10:29:51;3.20;77.10
2441;DHT22;1231;53.988;9.470;2022-12-10T10:32:43;3.20;76.80
2441;DHT22;1231;53.988;9.470;2022-12-10T10:35:23;3.20;76.70
2441;DHT22;1231;53.988;9.470;2022-12-10T10:38:05;3.20;76.80
2441;DHT22;1231;53.988;9.470;2022-12-10T10:40:40;3.10;76.60
2441;DHT22;1231;53.988;9.470;2022-12-10T10:43:24;3.10;76.70
2441;DHT22;1231;53.988;9.470;2022-12-10T10:46:04;3.10;76.60
2441;DHT22;1231;53.988;9.470;2022-12-10T10:48:36;3.00;76.60
2441;DHT22;1231;53.988;9.470;2022-12-10T10:53:47;3.00;76.90
2441;DHT22;1231;53.988;9.470;2022-12-10T10:56:29;3.00;77.20
2441;DHT22;1231;53.988;9.470;2022-12-10T11:04:30;3.00;77.40
2441;DHT22;1231;53.988;9.470;2022-12-10T11:07:02;3.00;77.40
2441;DHT22;1231;53.988;9.470;2022-12-10T11:09:35;2.90;77.40
2441;DHT22;1231;53.988;9.470;2022-12-10T11:12:33;2.90;77.60
2441;DHT22;1231;53.988;9.470;2022-12-10T11:17:54;2.80;77.80
2441;DHT22;1231;53.988;9.470;2022-12-10T11:20:32;2.80;78.10
2441;DHT22;1231;53.988;9.470;2022-12-10T11:23:09;2.70;78.20
2441;DHT22;1231;53.988;9.470;2022-12-10T11:25:51;2.70;78.30
2441;DHT22;1231;53.988;9.470;2022-12-10T11:34:18;2.70;78.60
2441;DHT22;1231;53.988;9.470;2022-12-10T11:42:59;2.60;78.90
2441;DHT22;1231;53.988;9.470;2022-12-10T11:46:03;2.70;79.00
2441;DHT22;1231;53.988;9.470;2022-12-10T11:48:57;2.70;79.10
2441;DHT22;1231;53.988;9.470;2022-12-10T11:51:40;2.70;79.00
2441;DHT22;1231;53.988;9.470;2022-12-10T11:54:34;2.70;79.10
2441;DHT22;1231;53.988;9.470;2022-12-10T11:57:31;2.70;79.20
2441;DHT22;1231;53.988;9.470;2022-12-10T12:02:51;2.70;79.20
2441;DHT22;1231;53.988;9.470;2022-12-10T12:13:59;2.70;78.90
2441;DHT22;1231;53.988;9.470;2022-12-10T12:16:44;2.70;78.80
2441;DHT22;1231;53.988;9.470;2022-12-10T12:19:22;2.70;78.80
2441;DHT22;1231;53.988;9.470;2022-12-10T12:21:54;2.60;78.80
2441;DHT22;1231;53.988;9.470;2022-12-10T12:24:35;2.60;78.70
2441;DHT22;1231;53.988;9.470;2022-12-10T12:30:17;2.60;78.80
2441;DHT22;1231;53.988;9.470;2022-12-10T12:35:42;2.60;78.70
2441;DHT22;1231;53.988;9.470;2022-12-10T12:39:14;2.60;78.60
2441;DHT22;1231;53.988;9.470;2022-12-10T12:44:50;2.60;78.70
2441;DHT22;1231;53.988;9.470;2022-12-10T12:47:47;2.60;78.70
2441;DHT22;1231;53.988;9.470;2022-12-10T12:50:41;2.60;78.60
2441;DHT22;1231;53.988;9.470;2022-12-10T12:53:17;2.60;78.70
2441;DHT22;1231;53.988;9.470;2022-12-10T12:56:02;2.50;78.60
2441;DHT22;1231;53.988;9.470;2022-12-10T13:04:02;2.50;78.70
2441;DHT22;1231;53.988;9.470;2022-12-10T13:06:35;2.50;78.70
2441;DHT22;1231;53.988;9.470;2022-12-10T13:12:16;2.40;78.80
2441;DHT22;1231;53.988;9.470;2022-12-10T13:17:34;2.40;79.00
2441;DHT22;1231;53.988;9.470;2022-12-10T13:23:02;2.50;79.10
2441;DHT22;1231;53.988;9.470;2022-12-10T13:39:37;2.40;79.20
2441;DHT22;1231;53.988;9.470;2022-12-10T13:45:05;2.40;79.30
2441;DHT22;1231;53.988;9.470;2022-12-10T13:47:46;2.40;79.30
2441;DHT22;1231;53.988;9.470;2022-12-10T13:56:16;2.40;79.20
2441;DHT22;1231;53.988;9.470;2022-12-10T13:59:20;2.40;79.20
2441;DHT22;1231;53.988;9.470;2022-12-10T14:02:10;2.30;79.10
2441;DHT22;1231;53.988;9.470;2022-12-10T14:08:04;2.20;79.30
2441;DHT22;1231;53.988;9.470;2022-12-10T14:10:36;2.20;79.40
2441;DHT22;1231;53.988;9.470;2022-12-10T14:13:10;2.10;79.40
2441;DHT22;1231;53.988;9.470;2022-12-10T14:15:47;2.10;79.70
2441;DHT22;1231;53.988;9.470;2022-12-10T14:18:22;2.10;79.50
2441;DHT22;1231;53.988;9.470;2022-12-10T14:20:54;2.10;79.70
2441;DHT22;1231;53.988;9.470;2022-12-10T14:23:31;2.10;79.70
2441;DHT22;1231;53.988;9.470;2022-12-10T14:26:25;2.00;79.80
2441;DHT22;1231;53.988;9.470;2022-12-10T14:29:00;2.00;79.90
2441;DHT22;1231;53.988;9.470;2022-12-10T14:31:42;2.00;80.10
2441;DHT22;1231;53.988;9.470;2022-12-10T14:34:22;2.00;80.20
2441;DHT22;1231;53.988;9.470;2022-12-10T14:37:01;2.00;80.20
2441;DHT22;1231;53.988;9.470;2022-12-10T14:39:33;2.00;80.20
2441;DHT22;1231;53.988;9.470;2022-12-10T14:42:05;2.00;80.10
2441;DHT22;1231;53.988;9.470;2022-12-10T14:44:38;2.00;80.10
2441;DHT22;1231;53.988;9.470;2022-12-10T14:47:17;1.90;80.10
2441;DHT22;1231;53.988;9.470;2022-12-10T14:49:50;1.90;80.10
2441;DHT22;1231;53.988;9.470;2022-12-10T14:52:23;1.90;80.10
2441;DHT22;1231;53.988;9.470;2022-12-10T14:54:55;1.90;80.10
2441;DHT22;1231;53.988;9.470;2022-12-10T14:57:38;1.90;80.10
2441;DHT22;1231;53.988;9.470;2022-12-10T15:00:16;1.90;80.00
2441;DHT22;1231;53.988;9.470;2022-12-10T15:02:54;1.90;79.90
2441;DHT22;1231;53.988;9.470;2022-12-10T15:05:31;1.80;80.00
2441;DHT22;1231;53.988;9.470;2022-12-10T15:08:06;1.80;80.00
2441;DHT22;1231;53.988;9.470;2022-12-10T15:10:39;1.80;79.90
2441;DHT22;1231;53.988;9.470;2022-12-10T15:13:21;1.80;80.00
2441;DHT22;1231;53.988;9.470;2022-12-10T15:15:53;1.80;80.00
2441;DHT22;1231;53.988;9.470;2022-12-10T15:18:31;1.80;80.00
2441;DHT22;1231;53.988;9.470;2022-12-10T15:21:12;1.80;80.00
2441;DHT22;1231;53.988;9.470;2022-12-10T15:23:47;1.80;80.00
2441;DHT22;1231;53.988;9.470;2022-12-10T15:26:23;1.80;80.00
2441;DHT22;1231;53.988;9.470;2022-12-10T15:29:35;1.80;80.10
2441;DHT22;1231;53.988;9.470;2022-12-10T15:32:27;1.80;80.10
2441;DHT22;1231;53.988;9.470;2022-12-10T15:35:01;1.80;80.20
2441;DHT22;1231;53.988;9.470;2022-12-10T15:37:38;1.80;80.20
2441;DHT22;1231;53.988;9.470;2022-12-10T15:40:30;1.80;80.20
2441;DHT22;1231;53.988;9.470;2022-12-10T15:43:13;1.80;80.20
2441;DHT22;1231;53.988;9.470;2022-12-10T15:45:50;1.80;80.20
2441;DHT22;1231;53.988;9.470;2022-12-10T15:48:21;1.90;80.20
2441;DHT22;1231;53.988;9.470;2022-12-10T15:50:54;1.90;80.20
2441;DHT22;1231;53.988;9.470;2022-12-10T15:53:28;1.90;80.20
2441;DHT22;1231;53.988;9.470;2022-12-10T15:55:59;1.90;80.10
2441;DHT22;1231;53.988;9.470;2022-12-10T15:58:30;1.90;79.90
2441;DHT22;1231;53.988;9.470;2022-12-10T16:01:00;1.80;79.80
2441;DHT22;1231;53.988;9.470;2022-12-10T16:03:33;1.80;79.90
2441;DHT22;1231;53.988;9.470;2022-12-10T16:06:04;1.80;79.80
2441;DHT22;1231;53.988;9.470;2022-12-10T16:08:35;1.80;79.60
2441;DHT22;1231;53.988;9.470;2022-12-10T16:11:17;1.80;79.70
2441;DHT22;1231;53.988;9.470;2022-12-10T16:13:51;1.90;79.40
2441;DHT22;1231;53.988;9.470;2022-12-10T16:16:23;1.80;79.30
2441;DHT22;1231;53.988;9.470;2022-12-10T16:18:54;1.80;79.30
2441;DHT22;1231;53.988;9.470;2022-12-10T16:21:24;1.80;79.30
2441;DHT22;1231;53.988;9.470;2022-12-10T16:23:55;1.80;79.20
2441;DHT22;1231;53.988;9.470;2022-12-10T16:26:26;1.70;79.10
2441;DHT22;1231;53.988;9.470;2022-12-10T16:28:56;1.70;79.10
2441;DHT22;1231;53.988;9.470;2022-12-10T16:31:27;1.60;79.10
2441;DHT22;1231;53.988;9.470;2022-12-10T16:33:57;1.60;79.00
2441;DHT22;1231;53.988;9.470;2022-12-10T16:36:28;1.60;78.90
2441;DHT22;1231;53.988;9.470;2022-12-10T16:38:59;1.50;78.90
2441;DHT22;1231;53.988;9.470;2022-12-10T16:41:29;1.50;78.90
2441;DHT22;1231;53.988;9.470;2022-12-10T16:44:00;1.50;78.90
2441;DHT22;1231;53.988;9.470;2022-12-10T16:46:30;1.50;78.90
2441;DHT22;1231;53.988;9.470;2022-12-10T16:49:01;1.50;79.00
2441;DHT22;1231;53.988;9.470;2022-12-10T16:51:32;1.50;79.10
2441;DHT22;1231;53.988;9.470;2022-12-10T16:54:03;1.50;79.10
2441;DHT22;1231;53.988;9.470;2022-12-10T16:56:33;1.50;79.10
2441;DHT22;1231;53.988;9.470;2022-12-10T16:59:04;1.50;79.00
2441;DHT22;1231;53.988;9.470;2022-12-10T17:01:34;1.50;78.90
2441;DHT22;1231;53.988;9.470;2022-12-10T17:04:05;1.50;78.90
2441;DHT22;1231;53.988;9.470;2022-12-10T17:06:36;1.40;78.90
2441;DHT22;1231;53.988;9.470;2022-12-10T17:09:06;1.40;78.90
2441;DHT22;1231;53.988;9.470;2022-12-10T17:11:41;1.40;78.90
2441;DHT22;1231;53.988;9.470;2022-12-10T17:14:22;1.40;78.80
2441;DHT22;1231;53.988;9.470;2022-12-10T17:16:55;1.40;78.80
2441;DHT22;1231;53.988;9.470;2022-12-10T17:19:32;1.40;78.80
2441;DHT22;1231;53.988;9.470;2022-12-10T17:22:04;1.40;78.80
2441;DHT22;1231;53.988;9.470;2022-12-10T17:24:36;1.40;78.80
2441;DHT22;1231;53.988;9.470;2022-12-10T17:27:12;1.40;78.70
2441;DHT22;1231;53.988;9.470;2022-12-10T17:29:45;1.40;78.60
2441;DHT22;1231;53.988;9.470;2022-12-10T17:32:22;1.40;78.50
2441;DHT22;1231;53.988;9.470;2022-12-10T17:34:53;1.40;78.50
2441;DHT22;1231;53.988;9.470;2022-12-10T17:37:25;1.30;78.60
2441;DHT22;1231;53.988;9.470;2022-12-10T17:40:00;1.40;78.70
2441;DHT22;1231;53.988;9.470;2022-12-10T17:42:30;1.40;78.70
2441;DHT22;1231;53.988;9.470;2022-12-10T17:45:01;1.40;78.80
2441;DHT22;1231;53.988;9.470;2022-12-10T17:47:31;1.30;78.60
2441;DHT22;1231;53.988;9.470;2022-12-10T17:50:03;1.30;78.50
2441;DHT22;1231;53.988;9.470;2022-12-10T17:52:42;1.30;78.50
2441;DHT22;1231;53.988;9.470;2022-12-10T17:55:13;1.30;78.50
2441;DHT22;1231;53.988;9.470;2022-12-10T17:57:43;1.30;78.50
2441;DHT22;1231;53.988;9.470;2022-12-10T18:00:17;1.30;78.50
2441;DHT22;1231;53.988;9.470;2022-12-10T18:02:48;1.30;78.50
2441;DHT22;1231;53.988;9.470;2022-12-10T18:05:19;1.30;78.40
2441;DHT22;1231;53.988;9.470;2022-12-10T18:07:50;1.30;78.30
2441;DHT22;1231;53.988;9.470;2022-12-10T18:10:24;1.20;78.20
2441;DHT22;1231;53.988;9.470;2022-12-10T18:12:55;1.20;78.30
2441;DHT22;1231;53.988;9.470;2022-12-10T18:15:28;1.20;78.40
2441;DHT22;1231;53.988;9.470;2022-12-10T18:17:59;1.20;78.40
2441;DHT22;1231;53.988;9.470;2022-12-10T18:20:36;1.20;78.20
2441;DHT22;1231;53.988;9.470;2022-12-10T18:23:09;1.10;78.10
2441;DHT22;1231;53.988;9.470;2022-12-10T18:25:43;1.10;78.10
2441;DHT22;1231;53.988;9.470;2022-12-10T18:30:52;1.10;78.20
2441;DHT22;1231;53.988;9.470;2022-12-10T18:33:25;1.10;78.30
2441;DHT22;1231;53.988;9.470;2022-12-10T18:35:55;1.20;78.30
2441;DHT22;1231;53.988;9.470;2022-12-10T18:38:26;1.20;78.30
2441;DHT22;1231;53.988;9.470;2022-12-10T18:40:56;1.20;78.20
2441;DHT22;1231;53.988;9.470;2022-12-10T18:43:27;1.20;78.10
2441;DHT22;1231;53.988;9.470;2022-12-10T18:45:57;1.10;77.70
2441;DHT22;1231;53.988;9.470;2022-12-10T18:48:28;1.10;77.70
2441;DHT22;1231;53.988;9.470;2022-12-10T18:50:59;1.10;77.70